Time;durP1;ratioP1;P1;durP2;ratioP2;P2;SDS_P1;SDS_P2;PMS_P1;PMS_P2;Temp;Humidity;BMP_temperature;BMP_pressure;BME280_temperature;BME280_humidity;BME280_pressure;Samples;Min_cycle;Max_cycle;Signal;HPM_P1;HPM_P2
2022/08/01 00:02:04;;;;;;;4.75;1.73;;;13.90;78.80;;;;;;4982277;28;20042;-67
2022/08/01 00:04:30;;;;;;;4.13;1.40;;;13.90;78.70;;;;;;4990414;28;20018;-68
2022/08/01 00:06:57;;;;;;;7.35;3.55;;;13.90;78.60;;;;;;4981253;28;20066;-69
2022/08/01 00:09:23;;;;;;;5.05;1.40;;;13.90;78.70;;;;;;4986430;28;20036;-72
2022/08/01 00:11:50;;;;;;;3.40;1.58;;;13.90;78.60;;;;;;4985232;28;20023;-75
2022/08/01 00:14:17;;;;;;;7.50;2.95;;;13.90;78.60;;;;;;4986148;28;20105;-70
2022/08/01 00:16:43;;;;;;;3.78;1.50;;;13.90;79.10;;;;;;4988375;28;20026;-69
2022/08/01 00:19:09;;;;;;;3.40;1.85;;;13.80;78.90;;;;;;4986261;28;20525;-68
2022/08/01 00:21:36;;;;;;;4.70;1.90;;;13.90;78.80;;;;;;4981853;28;20076;-67
2022/08/01 00:24:02;;;;;;;6.20;1.65;;;13.80;78.90;;;;;;4985894;28;20212;-68
2022/08/01 00:26:29;;;;;;;4.65;1.45;;;13.90;78.80;;;;;;4985859;28;20045;-68
2022/08/01 00:28:55;;;;;;;4.45;1.42;;;13.80;78.90;;;;;;4988393;28;20022;-74
2022/08/01 00:31:22;;;;;;;6.30;1.65;;;13.80;78.80;;;;;;4980079;28;20026;-72
2022/08/01 00:33:48;;;;;;;4.53;1.48;;;13.80;78.90;;;;;;4983009;28;20415;-72
2022/08/01 00:36:15;;;;;;;2.80;1.23;;;13.80;78.90;;;;;;4997286;28;20390;-73
2022/08/01 00:38:41;;;;;;;4.70;1.40;;;13.80;78.80;;;;;;4981116;28;20471;-73
2022/08/01 00:41:08;;;;;;;4.68;2.10;;;13.80;78.80;;;;;;4989684;28;20046;-68
2022/08/01 00:43:34;;;;;;;8.40;2.65;;;13.80;78.60;;;;;;4987056;28;20109;-73
2022/08/01 00:46:01;;;;;;;8.95;1.17;;;13.80;78.50;;;;;;4981477;28;20035;-69
2022/08/01 00:48:27;;;;;;;12.05;1.42;;;13.80;79.00;;;;;;4983520;28;20022;-69
2022/08/01 00:50:53;;;;;;;5.20;1.40;;;13.80;79.30;;;;;;4988756;28;20026;-73
2022/08/01 00:53:20;;;;;;;3.45;1.05;;;13.80;79.00;;;;;;4977656;28;20026;-71
2022/08/01 00:55:48;;;;;;;2.72;0.90;;;13.80;78.60;;;;;;4984383;28;20026;-68
2022/08/01 00:58:14;;;;;;;2.17;1.20;;;13.70;77.80;;;;;;4986009;28;20486;-69
2022/08/01 01:00:41;;;;;;;3.78;1.23;;;13.70;77.40;;;;;;4985895;28;20110;-67
2022/08/01 01:03:08;;;;;;;12.65;2.08;;;13.70;77.20;;;;;;4982395;28;20489;-74
2022/08/01 01:05:51;;;;;;;18.13;2.42;;;13.70;77.10;;;;;;4985575;28;20019;-77
2022/08/01 01:08:27;;;;;;;8.70;1.58;;;13.70;77.80;;;;;;4984137;28;20076;-74
2022/08/01 01:11:09;;;;;;;16.60;1.98;;;13.70;77.80;;;;;;4980357;28;20026;-72
2022/08/01 01:13:38;;;;;;;2.50;1.10;;;13.80;77.90;;;;;;4986183;28;20034;-72
2022/08/01 01:16:14;;;;;;;6.93;1.45;;;13.70;76.90;;;;;;4986190;28;20027;-72
2022/08/01 01:19:00;;;;;;;7.95;1.73;;;13.70;76.60;;;;;;4981979;28;20394;-70
2022/08/01 01:21:53;;;;;;;3.75;2.25;;;13.60;76.80;;;;;;4986513;28;20022;-70
2022/08/01 01:24:45;;;;;;;1.98;1.27;;;13.60;76.60;;;;;;4971227;28;20035;-68
2022/08/01 01:27:29;;;;;;;10.40;2.67;;;13.60;76.00;;;;;;4984811;28;20544;-69
2022/08/01 01:29:58;;;;;;;3.05;1.85;;;13.60;75.80;;;;;;4984786;28;20026;-73
2022/08/01 01:32:34;;;;;;;4.78;2.00;;;13.60;75.80;;;;;;4982403;28;20034;-70
2022/08/01 01:35:05;;;;;;;4.80;1.98;;;13.60;75.30;;;;;;4981086;28;20101;-73
2022/08/01 01:37:33;;;;;;;4.93;1.70;;;13.50;75.10;;;;;;4982477;28;20114;-68
2022/08/01 01:40:02;;;;;;;5.18;2.92;;;13.50;74.90;;;;;;4988365;28;20022;-73
2022/08/01 01:42:30;;;;;;;10.90;1.95;;;13.50;74.90;;;;;;4984374;28;20047;-69
2022/08/01 01:44:58;;;;;;;4.97;2.80;;;13.50;75.10;;;;;;4985453;28;20552;-69
2022/08/01 01:47:25;;;;;;;5.82;2.53;;;13.50;75.30;;;;;;4981682;28;20026;-73
2022/08/01 01:49:56;;;;;;;11.27;2.75;;;13.50;75.10;;;;;;4982718;28;20026;-67
2022/08/01 01:52:24;;;;;;;21.48;13.10;;;13.40;74.80;;;;;;4984662;28;21077;-73
2022/08/01 01:54:53;;;;;;;22.98;14.07;;;13.40;74.80;;;;;;4978877;28;20022;-69
2022/08/01 01:57:21;;;;;;;9.35;7.03;;;13.40;74.50;;;;;;4981526;28;20019;-73
2022/08/01 01:59:49;;;;;;;6.97;5.00;;;13.40;74.50;;;;;;4985706;28;20041;-73
2022/08/01 02:02:17;;;;;;;5.10;3.22;;;13.40;74.30;;;;;;4983242;28;20077;-68
2022/08/01 02:04:46;;;;;;;5.70;2.00;;;13.40;74.10;;;;;;4980402;28;20062;-67
2022/08/01 02:07:18;;;;;;;4.05;2.35;;;13.40;74.10;;;;;;4977972;28;20047;-68
2022/08/01 02:09:47;;;;;;;3.42;1.40;;;13.40;74.00;;;;;;4981120;28;20058;-72
2022/08/01 02:12:16;;;;;;;4.28;1.38;;;13.30;73.80;;;;;;4984958;28;20119;-67
2022/08/01 02:14:45;;;;;;;5.75;1.55;;;13.30;73.70;;;;;;4988702;28;20022;-73
2022/08/01 02:17:15;;;;;;;3.60;1.38;;;13.30;73.60;;;;;;4983283;28;20385;-71
2022/08/01 02:19:42;;;;;;;6.25;1.52;;;13.30;73.60;;;;;;4977958;28;20093;-71
2022/08/01 02:22:31;;;;;;;4.63;2.20;;;13.30;73.50;;;;;;4980736;28;20027;-70
2022/08/01 02:25:13;;;;;;;6.10;1.10;;;13.30;73.40;;;;;;4985140;28;20038;-69
2022/08/01 02:28:03;;;;;;;4.43;1.17;;;13.30;73.40;;;;;;4985574;28;20048;-72
2022/08/01 02:30:41;;;;;;;2.83;1.70;;;13.20;73.30;;;;;;4983252;28;20030;-68
2022/08/01 02:33:16;;;;;;;15.68;3.30;;;13.20;73.30;;;;;;4982859;28;20465;-72
2022/08/01 02:35:45;;;;;;;4.38;1.63;;;13.20;73.30;;;;;;4986115;28;20101;-73
2022/08/01 02:38:14;;;;;;;10.25;2.97;;;13.20;73.00;;;;;;4988941;28;20026;-68
2022/08/01 02:40:45;;;;;;;38.55;19.85;;;13.20;73.40;;;;;;4981843;28;20023;-76
2022/08/01 02:43:15;;;;;;;20.20;10.95;;;13.20;74.10;;;;;;4979685;28;20042;-72
2022/08/01 02:45:47;;;;;;;18.10;6.53;;;13.20;74.70;;;;;;4985208;28;20034;-69
2022/08/01 02:48:17;;;;;;;9.23;3.92;;;13.30;74.80;;;;;;5001863;28;20508;-68
2022/08/01 02:50:48;;;;;;;7.57;2.92;;;13.30;74.40;;;;;;4987399;28;20477;-67
2022/08/01 02:53:18;;;;;;;11.52;2.00;;;13.30;74.40;;;;;;4986489;28;20081;-74
2022/08/01 02:55:47;;;;;;;3.90;1.73;;;13.20;74.00;;;;;;4985975;28;20026;-73
2022/08/01 02:58:18;;;;;;;5.70;1.38;;;13.20;73.50;;;;;;4987575;28;20538;-70
2022/08/01 03:00:46;;;;;;;6.30;1.40;;;13.20;73.30;;;;;;4991360;28;20042;-72
2022/08/01 03:03:15;;;;;;;1.85;1.15;;;13.20;73.10;;;;;;4985975;28;20113;-72
2022/08/01 03:05:43;;;;;;;4.95;1.08;;;13.20;73.00;;;;;;4981571;28;20554;-71
2022/08/01 03:08:11;;;;;;;6.13;2.63;;;13.20;72.90;;;;;;4987997;28;21150;-67
2022/08/01 03:10:40;;;;;;;4.88;1.17;;;13.10;72.70;;;;;;4990053;28;20026;-69
2022/08/01 03:13:08;;;;;;;4.70;1.45;;;13.10;72.60;;;;;;4984055;28;20027;-68
2022/08/01 03:15:38;;;;;;;4.38;1.35;;;13.10;72.80;;;;;;4987913;28;20134;-71
2022/08/01 03:18:08;;;;;;;3.63;1.38;;;13.10;72.80;;;;;;4987312;28;20023;-69
2022/08/01 03:20:34;;;;;;;2.97;1.20;;;13.10;72.60;;;;;;4984256;28;20102;-69
2022/08/01 03:23:07;;;;;;;3.00;0.93;;;13.10;72.60;;;;;;4985136;28;20027;-69
2022/08/01 03:25:38;;;;;;;2.95;0.93;;;13.10;72.50;;;;;;4986247;28;20034;-68
2022/08/01 03:28:06;;;;;;;1.63;0.95;;;13.10;72.40;;;;;;4990171;28;20058;-71
2022/08/01 03:30:35;;;;;;;1.83;1.20;;;13.10;72.40;;;;;;4982762;28;20038;-69
2022/08/01 03:33:02;;;;;;;11.25;1.27;;;13.10;72.30;;;;;;4983998;28;20064;-70
2022/08/01 03:35:34;;;;;;;10.88;1.38;;;13.10;73.20;;;;;;4986252;28;20081;-70
2022/08/01 03:38:02;;;;;;;15.52;1.80;;;13.00;73.40;;;;;;4986303;28;20157;-67
2022/08/01 03:40:41;;;;;;;14.82;1.52;;;13.00;74.00;;;;;;4983635;28;20041;-68
2022/08/01 03:43:16;;;;;;;13.52;1.20;;;13.10;74.60;;;;;;4986887;28;20034;-75
2022/08/01 03:45:48;;;;;;;4.63;0.93;;;13.10;74.90;;;;;;4987186;28;20023;-69
2022/08/01 03:48:18;;;;;;;13.20;2.42;;;13.10;75.30;;;;;;4986760;28;20030;-68
2022/08/01 03:50:51;;;;;;;10.25;1.55;;;13.10;75.70;;;;;;4987644;28;20026;-73
2022/08/01 03:53:23;;;;;;;7.40;1.27;;;13.10;75.80;;;;;;4983292;28;20031;-68
2022/08/01 03:55:50;;;;;;;11.70;1.88;;;13.10;76.00;;;;;;4982172;28;20538;-69
2022/08/01 03:58:17;;;;;;;2.83;1.48;;;13.20;75.90;;;;;;4984741;28;20464;-73
2022/08/01 04:00:45;;;;;;;5.05;1.17;;;13.10;74.80;;;;;;4985695;28;20085;-71
2022/08/01 04:03:13;;;;;;;4.55;1.65;;;13.10;73.70;;;;;;4980221;28;20027;-68
2022/08/01 04:05:43;;;;;;;4.90;1.77;;;13.10;73.30;;;;;;4984140;28;20015;-67
2022/08/01 04:08:09;;;;;;;7.05;1.38;;;13.00;73.20;;;;;;4979169;28;20026;-69
2022/08/01 04:10:37;;;;;;;2.58;1.25;;;13.00;71.70;;;;;;4986184;28;20377;-68
2022/08/01 04:13:03;;;;;;;15.48;10.60;;;12.90;73.00;;;;;;4985822;28;20204;-74
2022/08/01 04:15:31;;;;;;;35.88;22.50;;;12.90;73.90;;;;;;4984400;28;20022;-67
2022/08/01 04:17:57;;;;;;;23.15;12.57;;;12.90;73.80;;;;;;4994690;28;20026;-70
2022/08/01 04:20:24;;;;;;;10.55;7.50;;;12.90;73.40;;;;;;4984089;28;20488;-75
2022/08/01 04:22:50;;;;;;;5.85;3.55;;;12.90;73.10;;;;;;4981057;28;20031;-70
2022/08/01 04:25:27;;;;;;;9.32;2.85;;;12.90;72.60;;;;;;4983535;28;20031;-70
2022/08/01 04:27:56;;;;;;;8.85;3.15;;;12.90;72.60;;;;;;4985086;28;20030;-73
2022/08/01 04:31:04;;;;;;;12.52;3.78;;;12.80;73.00;;;;;;4981116;28;20034;-71
2022/08/01 04:33:32;;;;;;;15.93;10.35;;;12.80;73.10;;;;;;4983363;28;20034;-70
2022/08/01 04:36:01;;;;;;;25.33;13.95;;;12.80;73.10;;;;;;4985008;28;20026;-69
2022/08/01 04:38:30;;;;;;;14.57;8.50;;;12.80;73.10;;;;;;4982901;28;20026;-71
2022/08/01 04:41:36;;;;;;;12.35;4.72;;;12.80;72.80;;;;;;4982396;28;20541;-69
2022/08/01 04:44:42;;;;;;;8.80;3.63;;;12.70;72.50;;;;;;4991234;28;20520;-70
2022/08/01 04:47:48;;;;;;;10.82;6.90;;;12.70;72.60;;;;;;4996408;28;20978;-69
2022/08/01 04:50:55;;;;;;;25.20;15.68;;;12.70;72.50;;;;;;4987858;28;20109;-72
2022/08/01 04:53:21;;;;;;;17.58;9.27;;;12.70;72.40;;;;;;4986729;28;20049;-69
2022/08/01 04:55:48;;;;;;;13.13;7.53;;;12.70;72.20;;;;;;4985027;28;20478;-68
2022/08/01 04:58:16;;;;;;;7.45;5.40;;;12.70;72.00;;;;;;4980008;28;20031;-76
2022/08/01 05:00:42;;;;;;;7.80;5.68;;;12.60;71.80;;;;;;4979405;28;20141;-75
2022/08/01 05:03:09;;;;;;;17.98;5.47;;;12.60;71.70;;;;;;4985742;28;20043;-75
2022/08/01 05:05:35;;;;;;;14.93;4.45;;;12.60;71.70;;;;;;4984925;28;20030;-77
2022/08/01 05:08:02;;;;;;;9.55;3.80;;;12.60;71.90;;;;;;4980914;28;20031;-74
2022/08/01 05:11:08;;;;;;;10.02;3.88;;;12.60;71.90;;;;;;4985872;28;20030;-70
2022/08/01 05:14:14;;;;;;;13.20;4.95;;;12.60;71.90;;;;;;4980921;28;20030;-69
2022/08/01 05:17:20;;;;;;;5.38;3.08;;;12.50;71.90;;;;;;4977657;28;20498;-74
2022/08/01 05:20:26;;;;;;;20.38;4.50;;;12.50;71.80;;;;;;4984084;28;20022;-70
2022/08/01 05:23:32;;;;;;;9.82;3.53;;;12.50;71.80;;;;;;4983027;28;20030;-73
2022/08/01 05:26:38;;;;;;;5.28;2.03;;;12.50;71.80;;;;;;4981097;28;20022;-76
2022/08/01 05:29:44;;;;;;;6.85;2.35;;;12.50;71.70;;;;;;4985104;28;20023;-69
2022/08/01 05:32:51;;;;;;;3.53;1.90;;;12.50;71.50;;;;;;4980803;28;20030;-70
2022/08/01 05:35:57;;;;;;;3.85;2.50;;;12.50;71.50;;;;;;4981518;28;20381;-69
2022/08/01 05:39:03;;;;;;;9.60;2.72;;;12.40;71.50;;;;;;4983268;28;20026;-69
2022/08/01 05:42:09;;;;;;;8.93;2.63;;;12.40;71.50;;;;;;4983764;28;20089;-70
2022/08/01 05:45:15;;;;;;;13.20;2.60;;;12.40;71.50;;;;;;4984377;28;20381;-74
2022/08/01 05:48:21;;;;;;;24.20;2.53;;;12.40;72.50;;;;;;4981286;28;20712;-72
2022/08/01 05:51:27;;;;;;;7.68;1.83;;;12.40;73.10;;;;;;4978957;28;20064;-71
2022/08/01 05:54:33;;;;;;;13.65;2.40;;;12.40;73.40;;;;;;4984968;28;20042;-77
2022/08/01 05:57:39;;;;;;;6.55;2.33;;;12.50;73.60;;;;;;4982825;28;20027;-72
2022/08/01 06:00:45;;;;;;;2.75;2.00;;;12.50;73.70;;;;;;4979833;28;20033;-71
2022/08/01 06:03:53;;;;;;;14.60;2.65;;;12.50;73.30;;;;;;4976743;28;20501;-72
2022/08/01 06:06:59;;;;;;;7.38;2.35;;;12.40;73.30;;;;;;4985552;28;20061;-69
2022/08/01 06:10:06;;;;;;;20.27;3.45;;;12.40;73.20;;;;;;4982828;28;20014;-69
2022/08/01 06:13:15;;;;;;;3.83;2.00;;;12.50;73.50;;;;;;4982243;28;20078;-69
2022/08/01 06:15:41;;;;;;;10.00;2.58;;;12.50;72.90;;;;;;4981130;28;20043;-71
2022/08/01 06:18:08;;;;;;;6.10;2.53;;;12.40;72.80;;;;;;4977410;28;20022;-71
2022/08/01 06:20:34;;;;;;;10.68;2.25;;;12.40;72.80;;;;;;4984732;28;20062;-73
2022/08/01 06:23:21;;;;;;;5.75;2.25;;;12.40;73.40;;;;;;4984012;28;20045;-72
2022/08/01 06:25:54;;;;;;;14.52;2.35;;;12.40;72.80;;;;;;4985316;28;20018;-68
2022/08/01 06:29:00;;;;;;;2.95;2.13;;;12.40;72.90;;;;;;4987051;28;20045;-72
2022/08/01 06:32:06;;;;;;;3.38;2.42;;;12.40;73.00;;;;;;4981729;28;20026;-71
2022/08/01 06:35:12;;;;;;;19.17;2.75;;;12.40;73.10;;;;;;4984809;28;20030;-70
2022/08/01 06:38:18;;;;;;;5.60;2.63;;;12.40;73.40;;;;;;4985652;28;20030;-72
2022/08/01 06:41:24;;;;;;;5.13;1.88;;;12.40;74.20;;;;;;4981942;28;20489;-75
2022/08/01 06:44:30;;;;;;;25.08;2.83;;;12.40;73.80;;;;;;4983374;28;20643;-70
2022/08/01 06:47:36;;;;;;;11.93;3.03;;;12.40;74.50;;;;;;4982955;28;20142;-72
2022/08/01 06:50:42;;;;;;;27.23;5.72;;;12.50;75.20;;;;;;4987546;28;20030;-77
2022/08/01 06:53:18;;;;;;;10.30;2.92;;;12.50;75.70;;;;;;4983977;28;20030;-71
2022/08/01 06:56:04;;;;;;;6.72;2.35;;;12.50;76.20;;;;;;4987898;28;20026;-74
2022/08/01 06:58:31;;;;;;;5.07;2.85;;;12.50;75.40;;;;;;4979688;28;20890;-72
2022/08/01 07:00:58;;;;;;;9.48;3.17;;;12.50;75.30;;;;;;4983066;28;20054;-71
2022/08/01 07:03:24;;;;;;;10.43;3.92;;;12.60;75.30;;;;;;4982617;28;20393;-70
2022/08/01 07:05:50;;;;;;;5.18;2.35;;;12.60;75.90;;;;;;4980230;28;20072;-74
2022/08/01 07:08:17;;;;;;;6.32;2.70;;;12.60;76.20;;;;;;4983267;28;20031;-72
2022/08/01 07:10:44;;;;;;;6.25;2.42;;;12.60;76.40;;;;;;4982099;28;20057;-73
2022/08/01 07:13:12;;;;;;;6.18;2.45;;;12.60;76.40;;;;;;4985712;28;20025;-75
2022/08/01 07:15:38;;;;;;;6.38;2.85;;;12.60;76.20;;;;;;4984959;28;20033;-76
2022/08/01 07:18:04;;;;;;;7.70;3.58;;;12.70;76.00;;;;;;4983882;28;20369;-72
2022/08/01 07:20:31;;;;;;;19.75;3.33;;;12.70;75.90;;;;;;4984143;28;20101;-68
2022/08/01 07:22:57;;;;;;;6.60;2.85;;;12.70;75.80;;;;;;4981156;28;20039;-74
2022/08/01 07:25:24;;;;;;;8.45;2.97;;;12.70;75.70;;;;;;4984261;28;20373;-72
2022/08/01 07:27:50;;;;;;;9.05;3.63;;;12.70;75.60;;;;;;4978536;28;20030;-77
2022/08/01 07:30:17;;;;;;;4.93;2.10;;;12.70;75.50;;;;;;4981807;28;20053;-73
2022/08/01 07:32:43;;;;;;;14.05;3.83;;;12.80;75.40;;;;;;4985826;28;20049;-70
2022/08/01 07:35:10;;;;;;;12.13;2.95;;;12.80;75.10;;;;;;4983839;28;20412;-76
2022/08/01 07:37:37;;;;;;;5.60;2.30;;;12.80;74.90;;;;;;4985439;28;20038;-73
2022/08/01 07:40:05;;;;;;;7.75;2.97;;;12.90;74.80;;;;;;4982997;28;20031;-75
2022/08/01 07:42:32;;;;;;;5.10;2.13;;;12.90;74.60;;;;;;4981666;28;20031;-70
2022/08/01 07:44:58;;;;;;;4.20;2.30;;;12.90;74.30;;;;;;4982065;28;20015;-72
2022/08/01 07:47:26;;;;;;;4.82;3.15;;;12.90;73.90;;;;;;4982960;28;20030;-72
2022/08/01 07:49:58;;;;;;;7.32;2.40;;;12.90;73.90;;;;;;4985080;28;20022;-77
2022/08/01 07:52:26;;;;;;;8.20;3.10;;;13.00;73.70;;;;;;4978748;28;20667;-68
2022/08/01 07:55:32;;;;;;;7.22;2.75;;;13.00;73.70;;;;;;4983168;28;20473;-76
2022/08/01 07:58:38;;;;;;;6.40;3.30;;;13.00;73.40;;;;;;4983722;28;20037;-68
2022/08/01 08:01:44;;;;;;;5.43;2.58;;;13.10;73.00;;;;;;4982475;28;20042;-69
2022/08/01 08:04:50;;;;;;;4.85;3.00;;;13.10;73.00;;;;;;4986311;28;20028;-70
2022/08/01 08:07:58;;;;;;;6.25;3.13;;;13.10;72.90;;;;;;4443457;28;15728146;-72
2022/08/01 08:11:04;;;;;;;5.85;2.95;;;13.20;72.40;;;;;;4985390;28;20038;-73
2022/08/01 08:14:10;;;;;;;10.45;3.95;;;13.20;72.50;;;;;;4980490;28;20045;-74
2022/08/01 08:17:16;;;;;;;6.72;2.42;;;13.20;72.70;;;;;;4987371;28;20048;-69
2022/08/01 08:20:24;;;;;;;4.57;2.75;;;13.30;72.90;;;;;;4987516;28;20032;-76
2022/08/01 08:26:58;;;;;;;9.57;3.15;;;13.40;72.70;;;;;;4982966;28;20045;-68
2022/08/01 08:29:26;;;;;;;7.82;3.53;;;13.50;72.70;;;;;;4988783;28;20374;-73
2022/08/01 08:31:56;;;;;;;15.57;3.20;;;13.50;72.70;;;;;;4983590;28;20038;-68
2022/08/01 08:34:23;;;;;;;4.90;3.38;;;13.60;73.40;;;;;;4984186;28;20030;-75
2022/08/01 08:36:50;;;;;;;14.77;4.38;;;13.60;73.50;;;;;;4989405;28;20137;-73
2022/08/01 08:39:17;;;;;;;6.72;2.80;;;13.70;73.70;;;;;;4982785;28;20552;-74
2022/08/01 08:41:44;;;;;;;9.55;3.05;;;13.70;73.90;;;;;;4987732;28;20027;-69
2022/08/01 08:44:10;;;;;;;7.22;2.92;;;13.80;74.20;;;;;;4986741;28;20032;-69
2022/08/01 08:46:58;;;;;;;5.75;2.92;;;13.90;74.40;;;;;;4985095;28;20498;-73
2022/08/01 08:49:27;;;;;;;6.75;2.30;;;13.90;74.40;;;;;;4981854;28;20031;-73
2022/08/01 08:51:59;;;;;;;8.55;3.28;;;14.00;74.60;;;;;;4984970;28;20105;-73
2022/08/01 08:54:26;;;;;;;3.83;1.98;;;14.10;74.80;;;;;;4978170;28;20054;-69
2022/08/01 08:56:54;;;;;;;6.72;1.50;;;14.10;74.60;;;;;;4984417;28;20034;-72
2022/08/01 08:59:21;;;;;;;4.30;1.75;;;14.10;74.10;;;;;;4985017;28;20022;-69
2022/08/01 09:01:48;;;;;;;1.58;1.08;;;14.10;73.60;;;;;;4983996;28;20527;-68
2022/08/01 09:04:14;;;;;;;14.15;2.20;;;14.20;73.30;;;;;;4986944;28;20022;-69
2022/08/01 09:06:41;;;;;;;4.07;1.45;;;14.20;73.00;;;;;;4995344;28;20082;-69
2022/08/01 09:09:09;;;;;;;6.07;1.88;;;14.20;73.30;;;;;;4982214;28;20106;-72
2022/08/01 09:11:36;;;;;;;5.28;1.20;;;14.20;73.00;;;;;;4986481;28;20014;-76
2022/08/01 09:14:25;;;;;;;3.53;0.98;;;14.30;72.90;;;;;;4986205;28;20022;-74
2022/08/01 09:17:10;;;;;;;9.02;2.90;;;14.40;72.80;;;;;;4983222;28;20030;-69
2022/08/01 09:19:38;;;;;;;7.20;2.17;;;14.40;72.70;;;;;;4986366;28;20034;-72
2022/08/01 09:22:07;;;;;;;3.35;1.52;;;14.50;72.80;;;;;;4982350;28;20065;-71
2022/08/01 09:24:34;;;;;;;5.20;1.60;;;14.50;72.00;;;;;;4986244;28;20556;-69
2022/08/01 09:27:15;;;;;;;6.72;2.47;;;14.60;71.20;;;;;;4984065;28;20022;-69
2022/08/01 09:29:44;;;;;;;4.20;1.63;;;14.60;69.90;;;;;;4986564;28;20026;-75
2022/08/01 09:32:11;;;;;;;8.18;2.05;;;14.60;69.70;;;;;;4980308;28;20018;-73
2022/08/01 09:34:37;;;;;;;5.75;1.88;;;14.60;69.90;;;;;;4986920;28;20381;-75
2022/08/01 09:37:05;;;;;;;10.52;2.53;;;14.70;70.50;;;;;;4985720;28;20539;-71
2022/08/01 09:39:37;;;;;;;12.43;3.85;;;14.80;70.50;;;;;;4983814;28;20037;-69
2022/08/01 09:42:27;;;;;;;13.38;3.33;;;14.80;69.70;;;;;;4981838;28;20030;-74
2022/08/01 09:44:54;;;;;;;8.30;2.95;;;14.80;69.30;;;;;;4984434;28;20030;-71
2022/08/01 09:47:21;;;;;;;6.43;2.63;;;14.90;68.90;;;;;;4981073;28;20173;-70
2022/08/01 09:49:57;;;;;;;6.72;2.58;;;15.00;68.70;;;;;;4980047;28;20058;-74
2022/08/01 09:52:25;;;;;;;5.47;1.92;;;15.00;68.50;;;;;;4981985;28;20377;-69
2022/08/01 09:54:57;;;;;;;2.85;1.75;;;15.10;66.50;;;;;;4981856;28;20034;-76
2022/08/01 09:57:24;;;;;;;7.05;1.92;;;15.10;65.60;;;;;;4982563;28;20026;-72
2022/08/01 09:59:53;;;;;;;6.38;2.13;;;15.20;66.00;;;;;;4986635;28;20022;-74
2022/08/01 10:02:37;;;;;;;9.52;1.77;;;15.20;66.00;;;;;;4985145;28;20533;-75
2022/08/01 10:05:06;;;;;;;7.43;1.25;;;15.30;64.60;;;;;;4987276;28;20022;-70
2022/08/01 10:07:33;;;;;;;6.57;1.92;;;15.30;63.40;;;;;;4978798;28;20082;-71
2022/08/01 10:10:14;;;;;;;2.95;1.50;;;15.40;62.60;;;;;;4981265;28;20449;-70
2022/08/01 10:12:42;;;;;;;3.40;1.33;;;15.40;62.30;;;;;;4982239;28;20030;-74
2022/08/01 10:15:10;;;;;;;5.32;2.00;;;15.50;62.50;;;;;;4982874;28;20141;-70
2022/08/01 10:17:39;;;;;;;2.08;1.63;;;15.50;62.70;;;;;;4982622;28;20014;-71
2022/08/01 10:20:07;;;;;;;7.32;1.90;;;15.60;62.90;;;;;;4984457;28;20035;-70
2022/08/01 10:22:35;;;;;;;3.47;1.50;;;15.60;62.40;;;;;;4986589;28;20457;-77
2022/08/01 10:25:04;;;;;;;6.15;2.17;;;15.70;62.60;;;;;;4985796;28;20062;-77
2022/08/01 10:27:36;;;;;;;2.38;1.48;;;15.80;61.80;;;;;;4980598;28;20093;-70
2022/08/01 10:30:05;;;;;;;4.50;2.20;;;15.90;61.40;;;;;;4983093;28;20026;-72
2022/08/01 10:32:34;;;;;;;5.30;2.42;;;15.90;61.30;;;;;;4981405;28;20023;-70
2022/08/01 10:35:02;;;;;;;2.85;1.98;;;16.00;61.10;;;;;;4983136;28;20023;-70
2022/08/01 10:37:28;;;;;;;4.47;1.92;;;16.00;61.10;;;;;;4986965;28;20030;-68
2022/08/01 10:39:55;;;;;;;3.28;1.23;;;16.10;60.80;;;;;;4980975;28;20614;-72
2022/08/01 10:42:22;;;;;;;3.95;2.03;;;16.10;60.40;;;;;;4978635;28;20045;-73
2022/08/01 10:44:49;;;;;;;2.28;1.27;;;16.10;60.10;;;;;;4987048;28;20018;-69
2022/08/01 10:47:27;;;;;;;4.40;1.75;;;16.20;59.70;;;;;;4982778;28;20061;-69
2022/08/01 10:50:13;;;;;;;7.45;2.15;;;16.20;59.40;;;;;;4983492;28;20033;-71
2022/08/01 10:52:40;;;;;;;6.57;1.98;;;16.30;59.40;;;;;;4984188;28;20030;-69
2022/08/01 10:55:11;;;;;;;3.78;1.40;;;16.30;59.70;;;;;;4983512;28;20397;-70
2022/08/01 10:57:48;;;;;;;6.55;1.67;;;16.40;60.40;;;;;;4982898;28;20424;-72
2022/08/01 11:00:19;;;;;;;2.92;1.00;;;16.50;60.60;;;;;;4984851;28;20034;-69
2022/08/01 11:03:05;;;;;;;4.50;1.17;;;16.60;60.70;;;;;;4981486;28;20090;-76
2022/08/01 11:05:37;;;;;;;9.85;1.80;;;16.70;60.90;;;;;;4983678;28;20448;-68
2022/08/01 11:08:10;;;;;;;7.63;1.55;;;16.80;61.50;;;;;;4985005;28;20035;-76
2022/08/01 11:10:45;;;;;;;7.53;1.33;;;16.80;61.30;;;;;;4985831;28;20050;-69
2022/08/01 11:13:13;;;;;;;5.10;1.02;;;16.80;60.20;;;;;;4988341;28;20030;-72
2022/08/01 11:15:41;;;;;;;3.22;1.17;;;16.90;60.40;;;;;;4990259;28;20077;-69
2022/08/01 11:18:32;;;;;;;2.88;1.23;;;17.00;60.10;;;;;;4989231;28;20109;-71
2022/08/01 11:21:03;;;;;;;3.60;0.88;;;17.00;59.30;;;;;;4987623;28;20508;-73
2022/08/01 11:23:32;;;;;;;3.08;0.70;;;17.00;58.80;;;;;;4989015;28;20089;-70
2022/08/01 11:26:01;;;;;;;3.55;0.75;;;17.00;58.40;;;;;;4985799;28;20022;-69
2022/08/01 11:28:29;;;;;;;1.15;0.55;;;17.10;58.50;;;;;;4987944;28;20034;-72
2022/08/01 11:31:08;;;;;;;4.82;0.95;;;17.10;58.30;;;;;;4989083;28;20081;-69
2022/08/01 11:33:44;;;;;;;4.03;0.75;;;17.20;58.60;;;;;;4987738;28;20065;-70
2022/08/01 11:36:15;;;;;;;3.42;1.20;;;17.20;59.20;;;;;;4987751;28;20045;-69
2022/08/01 11:38:44;;;;;;;5.43;1.20;;;17.30;59.20;;;;;;4988130;28;20030;-70
2022/08/01 11:41:15;;;;;;;5.55;1.17;;;17.40;59.70;;;;;;4992691;28;20077;-71
2022/08/01 11:44:04;;;;;;;4.30;0.73;;;17.40;59.90;;;;;;4983312;28;20039;-69
2022/08/01 11:46:56;;;;;;;2.03;1.50;;;17.50;59.80;;;;;;5001999;28;20363;-68
2022/08/01 11:49:37;;;;;;;2.38;1.10;;;17.50;60.30;;;;;;4982709;28;20026;-69
2022/08/01 11:52:15;;;;;;;0.75;0.50;;;17.60;60.50;;;;;;4984678;28;20474;-70
2022/08/01 11:55:05;;;;;;;2.22;1.00;;;17.60;59.80;;;;;;4986310;28;20061;-76
2022/08/01 11:57:37;;;;;;;7.72;0.93;;;17.70;59.70;;;;;;4983642;28;20426;-71
2022/08/01 12:00:17;;;;;;;1.60;0.90;;;17.70;60.00;;;;;;4982953;28;20034;-75
2022/08/01 12:02:56;;;;;;;3.88;1.23;;;17.80;60.00;;;;;;4983265;28;20027;-73
2022/08/01 12:05:22;;;;;;;5.63;1.73;;;17.80;60.50;;;;;;4983612;28;20121;-69
2022/08/01 12:07:53;;;;;;;2.28;0.80;;;17.80;59.90;;;;;;4985059;28;20050;-70
2022/08/01 12:10:21;;;;;;;2.95;1.25;;;17.80;60.00;;;;;;4987556;28;20027;-71
2022/08/01 12:12:51;;;;;;;10.50;1.52;;;17.90;59.90;;;;;;4982595;28;20674;-69
2022/08/01 12:15:18;;;;;;;5.30;1.00;;;17.90;60.10;;;;;;4985793;28;20420;-77
2022/08/01 12:17:51;;;;;;;5.45;1.77;;;18.00;59.60;;;;;;4983214;28;20359;-69
2022/08/01 12:20:21;;;;;;;5.68;1.58;;;18.00;59.30;;;;;;4981065;28;20023;-74
2022/08/01 12:22:52;;;;;;;4.18;1.02;;;18.00;59.40;;;;;;4983004;28;20034;-70
2022/08/01 12:25:19;;;;;;;2.60;0.82;;;18.10;59.10;;;;;;4999762;28;20405;-73
2022/08/01 12:27:46;;;;;;;7.20;1.27;;;18.10;58.60;;;;;;4988556;28;20365;-73
2022/08/01 12:30:15;;;;;;;4.32;1.02;;;18.10;58.10;;;;;;4983888;28;20073;-70
2022/08/01 12:32:44;;;;;;;12.80;2.05;;;18.10;58.10;;;;;;4980776;28;20745;-71
2022/08/01 12:35:15;;;;;;;8.57;1.65;;;18.20;59.80;;;;;;4982375;28;20018;-71
2022/08/01 12:37:48;;;;;;;3.42;1.13;;;18.20;59.00;;;;;;4983075;28;20513;-72
2022/08/01 12:40:17;;;;;;;5.03;1.40;;;18.20;58.10;;;;;;4984243;28;20527;-72
2022/08/01 12:42:46;;;;;;;7.68;2.05;;;18.20;57.80;;;;;;4982691;28;20070;-71
2022/08/01 12:45:17;;;;;;;2.95;1.10;;;18.20;57.70;;;;;;4984796;28;20124;-74
2022/08/01 12:47:44;;;;;;;8.63;1.75;;;18.30;57.70;;;;;;4984102;28;20026;-72
2022/08/01 12:50:17;;;;;;;32.38;4.25;;;18.30;57.60;;;;;;4983775;28;20105;-71
2022/08/01 12:52:44;;;;;;;28.52;8.98;;;18.30;58.20;;;;;;4982814;28;20050;-71
2022/08/01 12:55:19;;;;;;;24.05;5.55;;;18.30;58.60;;;;;;4979450;28;20064;-73
2022/08/01 12:58:02;;;;;;;7.72;2.83;;;18.30;58.50;;;;;;4981275;28;20026;-74
2022/08/01 13:00:29;;;;;;;6.07;3.08;;;18.40;57.90;;;;;;4982157;28;20042;-72
2022/08/01 13:03:06;;;;;;;2.83;1.63;;;18.40;57.80;;;;;;4983238;28;20037;-71
2022/08/01 13:05:43;;;;;;;8.40;1.35;;;18.40;57.40;;;;;;4982507;28;20029;-72
2022/08/01 13:08:12;;;;;;;3.05;1.27;;;18.40;57.10;;;;;;4984963;28;20037;-72
2022/08/01 13:10:38;;;;;;;5.13;2.78;;;18.40;57.30;;;;;;4985361;28;20381;-72
2022/08/01 13:13:05;;;;;;;13.27;7.25;;;18.40;57.40;;;;;;4982052;28;20058;-72
2022/08/01 13:15:34;;;;;;;21.00;3.83;;;18.40;58.10;;;;;;4982748;28;20117;-71
2022/08/01 13:18:21;;;;;;;7.05;2.85;;;18.40;58.30;;;;;;4982490;28;20026;-72
2022/08/01 13:20:48;;;;;;;2.60;1.75;;;18.40;57.80;;;;;;4979529;28;20519;-72
2022/08/01 13:23:19;;;;;;;2.60;1.45;;;18.40;57.30;;;;;;4983077;28;20080;-72
2022/08/01 13:25:55;;;;;;;3.90;1.15;;;18.40;57.20;;;;;;4980994;28;20029;-71
2022/08/01 13:28:27;;;;;;;4.50;1.25;;;18.40;56.80;;;;;;4977272;28;20421;-71
2022/08/01 13:31:13;;;;;;;7.28;1.67;;;18.40;57.20;;;;;;4979629;28;20362;-71